Time;durP1;ratioP1;P1;durP2;ratioP2;P2;SDS_P1;SDS_P2;PMS_P1;PMS_P2;Temp;Humidity;BMP_temperature;BMP_pressure;BME280_temperature;BME280_humidity;BME280_pressure;Samples;Min_cycle;Max_cycle;Signal;HPM_P1;HPM_P2
2022/12/07 00:01:19;;;;;;;18.93;10.03;;;;;;;-142.25;100.00;58004.16;5030689;28;20136;-62
2022/12/07 00:03:46;;;;;;;16.97;9.30;;;;;;;-142.25;100.00;58004.16;5031670;28;20049;-61
2022/12/07 00:06:14;;;;;;;14.03;7.87;;;;;;;-142.25;100.00;58004.16;5031011;28;20095;-62
2022/12/07 00:08:40;;;;;;;13.27;7.30;;;;;;;-142.25;100.00;58004.16;5032593;28;20045;-63
2022/12/07 00:11:22;;;;;;;15.20;8.37;;;;;;;-142.25;100.00;58004.16;5031294;28;20041;-63
2022/12/07 00:13:57;;;;;;;11.87;7.20;;;;;;;-142.25;100.00;58004.16;5030326;28;20480;-62
2022/12/07 00:16:44;;;;;;;14.45;7.50;;;;;;;-142.25;100.00;58004.16;5031628;28;20676;-63
2022/12/07 00:19:12;;;;;;;11.70;6.63;;;;;;;-142.25;100.00;58004.16;5032815;28;20063;-62
2022/12/07 00:21:38;;;;;;;6.70;4.80;;;;;;;-142.25;100.00;58004.16;5030982;28;20576;-62
2022/12/07 00:24:06;;;;;;;5.93;4.03;;;;;;;-142.25;100.00;58004.16;5033085;28;20037;-62
2022/12/07 00:26:34;;;;;;;3.23;2.93;;;;;;;-142.25;100.00;58004.16;5030980;28;20033;-62
2022/12/07 00:29:12;;;;;;;3.57;2.83;;;;;;;-142.25;100.00;58004.16;5030594;28;20041;-62
2022/12/07 00:31:38;;;;;;;5.00;3.53;;;;;;;-142.25;100.00;58004.16;5030882;28;20037;-62
2022/12/07 00:34:11;;;;;;;5.30;3.60;;;;;;;-142.25;100.00;58004.16;5031414;28;20045;-62
2022/12/07 00:36:37;;;;;;;4.10;3.00;;;;;;;-142.25;100.00;58004.16;5030509;28;20041;-62
2022/12/07 00:39:03;;;;;;;5.83;3.47;;;;;;;-142.25;100.00;58004.16;5030533;28;20044;-62
2022/12/07 00:41:30;;;;;;;6.13;3.70;;;;;;;-142.25;100.00;58004.16;5028394;28;20771;-62
2022/12/07 00:43:56;;;;;;;6.23;3.83;;;;;;;-142.25;100.00;58004.16;5025293;28;20045;-62
2022/12/07 00:46:23;;;;;;;5.87;3.73;;;;;;;-142.25;100.00;58004.16;5032690;28;20049;-62
2022/12/07 00:48:50;;;;;;;4.13;2.90;;;;;;;-142.25;100.00;58004.16;5031210;28;20634;-62
2022/12/07 00:51:18;;;;;;;4.03;2.67;;;;;;;-142.25;100.00;58004.16;5030998;28;20136;-62
2022/12/07 00:53:45;;;;;;;3.97;2.50;;;;;;;-142.25;100.00;58004.16;5030454;28;20044;-62
2022/12/07 00:56:17;;;;;;;3.40;2.33;;;;;;;-142.25;100.00;58004.16;5032156;28;20137;-62
2022/12/07 00:58:43;;;;;;;3.30;2.60;;;;;;;-142.25;100.00;58004.16;5031334;28;20357;-63
2022/12/07 01:01:10;;;;;;;5.53;3.23;;;;;;;-142.25;100.00;58004.16;5029126;28;20447;-63
2022/12/07 01:03:36;;;;;;;3.73;2.57;;;;;;;-142.25;100.00;58004.16;5033904;28;20235;-62
2022/12/07 01:06:02;;;;;;;3.17;2.20;;;;;;;-142.25;100.00;58004.16;5028954;28;20080;-62
2022/12/07 01:08:28;;;;;;;3.27;2.77;;;;;;;-142.25;100.00;58004.16;5028549;28;20136;-62
2022/12/07 01:11:03;;;;;;;3.40;2.87;;;;;;;-142.25;100.00;58004.16;5035543;28;20461;-63
2022/12/07 01:13:29;;;;;;;2.78;2.47;;;;;;;-142.25;100.00;58004.16;5031879;28;20041;-62
2022/12/07 01:16:00;;;;;;;5.60;2.73;;;;;;;-142.25;100.00;58004.16;5033016;28;20041;-62
2022/12/07 01:18:27;;;;;;;2.40;2.17;;;;;;;-142.25;100.00;58004.16;5039681;28;20041;-65
2022/12/07 01:21:10;;;;;;;5.13;3.13;;;;;;;-142.25;100.00;58004.16;5036250;28;20528;-61
2022/12/07 01:23:36;;;;;;;3.73;2.73;;;;;;;-142.25;100.00;58004.16;5033507;28;20040;-61
2022/12/07 01:26:06;;;;;;;3.63;2.87;;;;;;;-142.25;100.00;58004.16;5038746;28;20041;-61
2022/12/07 01:28:32;;;;;;;3.43;3.00;;;;;;;-142.25;100.00;58004.16;5041969;28;20036;-62
2022/12/07 01:31:14;;;;;;;4.27;3.40;;;;;;;-142.25;100.00;58004.16;5039693;28;20405;-61
2022/12/07 01:33:41;;;;;;;3.40;3.00;;;;;;;-142.25;100.00;58004.16;5043324;28;20041;-62
2022/12/07 01:36:18;;;;;;;5.13;4.07;;;;;;;-142.25;100.00;58004.16;5042311;28;20037;-61
2022/12/07 01:38:45;;;;;;;4.07;3.03;;;;;;;-142.25;100.00;58004.16;5032391;28;20056;-63
2022/12/07 01:41:11;;;;;;;4.20;3.50;;;;;;;-142.25;100.00;58004.16;5031084;28;20136;-62
2022/12/07 01:43:57;;;;;;;5.47;3.60;;;;;;;-142.25;100.00;58004.16;5029174;28;20049;-61
2022/12/07 01:46:22;;;;;;;;;;;;;;;-142.25;100.00;58004.16;5035661;28;20046;-61
2022/12/07 01:48:47;;;;;;;4.00;3.60;;;;;;;-142.25;100.00;58004.16;5031153;28;19925;-61
2022/12/07 01:51:14;;;;;;;3.63;3.13;;;;;;;-142.25;100.00;58004.16;5028424;28;20048;-62
2022/12/07 01:53:44;;;;;;;4.07;3.57;;;;;;;-142.25;100.00;58004.16;5034086;28;20068;-62
2022/12/07 01:56:14;;;;;;;3.97;3.57;;;;;;;-142.25;100.00;58004.16;5028344;28;20063;-61
2022/12/07 01:58:39;;;;;;;4.27;3.37;;;;;;;-142.25;100.00;58004.16;5032028;28;20096;-61
2022/12/07 02:01:05;;;;;;;4.53;3.87;;;;;;;-142.25;100.00;58004.16;5039811;28;20465;-61
2022/12/07 02:03:44;;;;;;;6.03;4.33;;;;;;;-142.25;100.00;58004.16;5034324;28;20044;-62
2022/12/07 02:06:14;;;;;;;4.40;3.57;;;;;;;-142.25;100.00;58004.16;5032442;28;20045;-61
2022/12/07 02:08:40;;;;;;;4.47;3.70;;;;;;;-142.25;100.00;58004.16;5034986;28;20506;-62
2022/12/07 02:11:07;;;;;;;5.90;4.20;;;;;;;-142.25;100.00;58004.16;5033357;28;20520;-62
2022/12/07 02:13:36;;;;;;;4.10;3.70;;;;;;;-142.25;100.00;58004.16;5033643;28;20049;-62
2022/12/07 02:16:29;;;;;;;5.37;3.67;;;;;;;-142.25;100.00;58004.16;5034107;28;20029;-61
2022/12/07 02:19:31;;;;;;;5.33;4.53;;;;;;;-142.25;100.00;58004.16;5032711;28;20057;-61
2022/12/07 02:22:17;;;;;;;5.30;3.97;;;;;;;-142.25;100.00;58004.16;5033776;28;20094;-61
2022/12/07 02:25:14;;;;;;;5.38;4.35;;;;;;;-142.25;100.00;58004.16;5032221;28;20128;-61
2022/12/07 02:27:47;;;;;;;4.73;4.23;;;;;;;-142.25;100.00;58004.16;5035258;28;20052;-61
2022/12/07 02:30:19;;;;;;;5.47;4.10;;;;;;;-142.25;100.00;58004.16;5032676;28;20045;-61
2022/12/07 02:32:56;;;;;;;5.40;3.93;;;;;;;-142.25;100.00;58004.16;5032974;28;20052;-62
2022/12/07 02:35:28;;;;;;;5.43;3.87;;;;;;;-142.25;100.00;58004.16;5032338;28;20603;-62
2022/12/07 02:38:12;;;;;;;5.57;4.47;;;;;;;-142.25;100.00;58004.16;5034858;28;20045;-62
2022/12/07 02:40:49;;;;;;;5.57;4.40;;;;;;;-142.25;100.00;58004.16;5033342;28;20045;-62
2022/12/07 02:43:30;;;;;;;4.10;3.70;;;;;;;-142.25;100.00;58004.16;5033261;28;20045;-62
2022/12/07 02:46:09;;;;;;;6.47;4.70;;;;;;;-142.25;100.00;58004.16;5032050;28;20053;-62
2022/12/07 02:48:39;;;;;;;5.93;4.63;;;;;;;-142.25;100.00;58004.16;5033428;28;20057;-62
2022/12/07 02:51:04;;;;;;;4.70;4.20;;;;;;;-142.25;100.00;58004.16;5034926;28;20548;-61
2022/12/07 02:53:41;;;;;;;7.20;4.17;;;;;;;-142.25;100.00;58004.16;5034647;28;20132;-61
2022/12/07 02:56:24;;;;;;;5.23;4.00;;;;;;;-142.25;100.00;58004.16;5035649;28;20036;-62
2022/12/07 02:59:28;;;;;;;4.20;3.80;;;;;;;-142.25;100.00;58004.16;5031902;28;20039;-61
2022/12/07 03:01:54;;;;;;;5.27;4.10;;;;;;;-142.25;100.00;58004.16;5032903;28;20124;-61
2022/12/07 03:04:38;;;;;;;5.87;4.60;;;;;;;-142.25;100.00;58004.16;5032812;28;20464;-62
2022/12/07 03:07:26;;;;;;;5.13;4.13;;;;;;;-142.25;100.00;58004.16;5032992;28;20114;-61
2022/12/07 03:09:58;;;;;;;4.43;4.00;;;;;;;-142.25;100.00;58004.16;5029923;28;20117;-61
2022/12/07 03:12:45;;;;;;;5.23;4.07;;;;;;;-142.25;100.00;58004.16;5027820;28;20045;-61
2022/12/07 03:15:31;;;;;;;3.87;3.30;;;;;;;-142.25;100.00;58004.16;5027464;28;20123;-61
2022/12/07 03:18:00;;;;;;;3.93;3.53;;;;;;;-142.25;100.00;58004.16;5032763;28;20555;-61
2022/12/07 03:20:29;;;;;;;4.40;3.20;;;;;;;-142.25;100.00;58004.16;5032373;28;20049;-61
2022/12/07 03:22:55;;;;;;;4.93;3.83;;;;;;;-142.25;100.00;58004.16;5032607;28;20041;-62
2022/12/07 03:25:21;;;;;;;3.30;3.10;;;;;;;-142.25;100.00;58004.16;5032875;28;20132;-61
2022/12/07 03:27:58;;;;;;;4.00;3.37;;;;;;;-142.25;100.00;58004.16;5040315;28;20397;-62
2022/12/07 03:30:38;;;;;;;3.67;3.07;;;;;;;-142.25;100.00;58004.16;5034562;28;20041;-61
2022/12/07 03:33:13;;;;;;;4.63;3.90;;;;;;;-142.25;100.00;58004.16;5032924;28;20110;-64
2022/12/07 03:35:44;;;;;;;6.30;4.55;;;;;;;-142.25;100.00;58004.16;5035077;28;20041;-61
2022/12/07 03:38:28;;;;;;;5.37;4.03;;;;;;;-142.25;100.00;58004.16;5038193;28;20190;-61
2022/12/07 03:41:19;;;;;;;7.57;4.10;;;;;;;-142.25;100.00;58004.16;5032830;28;20053;-61
2022/12/07 03:43:45;;;;;;;5.30;4.20;;;;;;;-142.25;100.00;58004.16;5032432;28;20056;-60
2022/12/07 03:46:34;;;;;;;5.43;4.10;;;;;;;-142.25;100.00;58004.16;5032298;28;20050;-61
2022/12/07 03:49:22;;;;;;;6.23;4.83;;;;;;;-142.25;100.00;58004.16;5045561;28;20075;-61
2022/12/07 03:52:19;;;;;;;6.83;4.73;;;;;;;-142.25;100.00;58004.16;5033640;28;20404;-61
2022/12/07 03:54:51;;;;;;;5.73;4.40;;;;;;;-142.25;100.00;58004.16;5029373;28;20053;-61
2022/12/07 03:57:18;;;;;;;7.30;4.80;;;;;;;-142.25;100.00;58004.16;5031999;28;20046;-61
2022/12/07 03:59:45;;;;;;;6.57;4.70;;;;;;;-142.25;100.00;58004.16;5031805;28;20155;-61
2022/12/07 04:02:13;;;;;;;6.77;4.80;;;;;;;-142.25;100.00;58004.16;5032328;28;20072;-61
2022/12/07 04:04:41;;;;;;;9.03;5.47;;;;;;;-142.25;100.00;58004.16;5031166;28;20484;-61
2022/12/07 04:07:07;;;;;;;9.87;5.87;;;;;;;-142.25;100.00;58004.16;5034220;28;20048;-61
2022/12/07 04:09:33;;;;;;;8.20;5.67;;;;;;;-142.25;100.00;58004.16;5032695;28;20041;-61
2022/12/07 04:11:58;;;;;;;8.97;5.90;;;;;;;-142.25;100.00;58004.16;5032915;28;20353;-60
2022/12/07 04:14:24;;;;;;;8.13;4.97;;;;;;;-142.25;100.00;58004.16;5033539;28;20524;-60
2022/12/07 04:16:53;;;;;;;10.07;6.57;;;;;;;-142.25;100.00;58004.16;5047015;28;20041;-60
2022/12/07 04:19:31;;;;;;;9.53;6.40;;;;;;;-142.25;100.00;58004.16;5032075;28;20128;-63
2022/12/07 04:21:58;;;;;;;11.77;7.10;;;;;;;-142.25;100.00;58004.16;5032736;28;20045;-61
2022/12/07 04:24:25;;;;;;;12.27;7.20;;;;;;;-142.25;100.00;58004.16;5032579;28;20492;-62
2022/12/07 04:26:50;;;;;;;9.90;6.37;;;;;;;-142.25;100.00;58004.16;5031632;28;20045;-60
2022/12/07 04:29:18;;;;;;;10.03;7.03;;;;;;;-142.25;100.00;58004.16;5031990;28;20103;-61
2022/12/07 04:31:44;;;;;;;11.37;6.80;;;;;;;-142.25;100.00;58004.16;5032398;28;20056;-60
2022/12/07 04:34:11;;;;;;;11.43;7.17;;;;;;;-142.25;100.00;58004.16;5032833;28;20071;-61
2022/12/07 04:36:37;;;;;;;10.83;7.53;;;;;;;-142.25;100.00;58004.16;5032889;28;20087;-60
2022/12/07 04:39:05;;;;;;;10.73;7.43;;;;;;;-142.25;100.00;58004.16;5035404;28;20045;-61
2022/12/07 04:41:31;;;;;;;14.03;8.40;;;;;;;-142.25;100.00;58004.16;5036123;28;20037;-61
2022/12/07 04:44:02;;;;;;;10.67;7.30;;;;;;;-142.25;100.00;58004.16;5036558;28;20106;-60
2022/12/07 04:46:29;;;;;;;10.97;7.20;;;;;;;-142.25;100.00;58004.16;5034084;28;20132;-61
2022/12/07 04:48:56;;;;;;;11.97;7.80;;;;;;;-142.25;100.00;58004.16;5033751;28;20059;-61
2022/12/07 04:51:25;;;;;;;11.63;6.73;;;;;;;-142.25;100.00;58004.16;5036024;28;20219;-61
2022/12/07 04:53:51;;;;;;;13.23;7.53;;;;;;;-142.25;100.00;58004.16;5037040;28;20043;-61
2022/12/07 04:56:17;;;;;;;10.93;7.33;;;;;;;-142.25;100.00;58004.16;5029277;28;20049;-62
2022/12/07 04:58:44;;;;;;;12.63;7.83;;;;;;;-142.25;100.00;58004.16;5032643;28;20242;-61
2022/12/07 05:01:10;;;;;;;12.87;8.63;;;;;;;-142.25;100.00;58004.16;5036381;28;20760;-62
2022/12/07 05:03:37;;;;;;;11.33;6.87;;;;;;;-142.25;100.00;58004.16;5035039;28;20049;-61
2022/12/07 05:06:03;;;;;;;11.00;7.00;;;;;;;-142.25;100.00;58004.16;5034541;28;20488;-62
2022/12/07 05:08:28;;;;;;;10.83;7.83;;;;;;;-142.25;100.00;58004.16;5034940;28;20128;-62
2022/12/07 05:10:54;;;;;;;12.70;7.83;;;;;;;-142.25;100.00;58004.16;5036341;28;20466;-62
2022/12/07 05:13:20;;;;;;;13.03;8.33;;;;;;;-142.25;100.00;58004.16;5035124;28;20037;-62
2022/12/07 05:15:47;;;;;;;11.90;7.90;;;;;;;-142.25;100.00;58004.16;5036489;28;20055;-62
2022/12/07 05:18:13;;;;;;;12.03;7.17;;;;;;;-142.25;100.00;58004.16;5034516;28;20384;-62
2022/12/07 05:20:39;;;;;;;12.17;7.43;;;;;;;-142.25;100.00;58004.16;5036885;28;20044;-62
2022/12/07 05:23:05;;;;;;;11.83;8.10;;;;;;;-142.25;100.00;58004.16;5034017;28;20116;-62
2022/12/07 05:25:31;;;;;;;15.80;8.93;;;;;;;-142.25;100.00;58004.16;5035621;28;20033;-62
2022/12/07 05:27:57;;;;;;;12.93;8.07;;;;;;;-142.25;100.00;58004.16;5034812;28;20033;-61
2022/12/07 05:30:23;;;;;;;10.67;6.87;;;;;;;-142.25;100.00;58004.16;5030921;28;20077;-62
2022/12/07 05:32:49;;;;;;;12.40;7.53;;;;;;;-142.25;100.00;58004.16;5029419;28;20513;-62
2022/12/07 05:35:15;;;;;;;9.13;7.20;;;;;;;-142.25;100.00;58004.16;5034181;28;20056;-62
2022/12/07 05:37:40;;;;;;;11.73;7.93;;;;;;;-142.25;100.00;58004.16;5033890;28;20072;-62
2022/12/07 05:40:07;;;;;;;10.83;7.10;;;;;;;-142.25;100.00;58004.16;5034284;28;20470;-62
2022/12/07 05:42:32;;;;;;;11.30;7.17;;;;;;;-142.25;100.00;58004.16;5034469;28;20064;-63
2022/12/07 05:44:58;;;;;;;12.03;7.53;;;;;;;-142.25;100.00;58004.16;5034625;28;20045;-62
2022/12/07 05:47:24;;;;;;;10.83;6.70;;;;;;;-142.25;100.00;58004.16;5034885;28;20551;-62
2022/12/07 05:49:49;;;;;;;13.00;8.23;;;;;;;-142.25;100.00;58004.16;5035204;28;20183;-63
2022/12/07 05:52:15;;;;;;;10.93;7.77;;;;;;;-142.25;100.00;58004.16;5035191;28;20049;-62
2022/12/07 05:54:40;;;;;;;10.90;7.13;;;;;;;-142.25;100.00;58004.16;5047890;28;20068;-61
2022/12/07 05:57:06;;;;;;;11.23;7.67;;;;;;;-142.25;100.00;58004.16;5033375;28;20614;-62
2022/12/07 05:59:32;;;;;;;10.97;7.60;;;;;;;-142.25;100.00;58004.16;5035684;28;20693;-62
2022/12/07 06:02:12;;;;;;;10.63;7.17;;;;;;;-142.25;100.00;58004.16;5032043;28;20042;-64
2022/12/07 06:04:41;;;;;;;11.03;6.90;;;;;;;-142.25;100.00;58004.16;5031346;28;20041;-62
2022/12/07 06:07:08;;;;;;;10.73;7.60;;;;;;;-142.25;100.00;58004.16;5034673;28;20132;-61
2022/12/07 06:09:34;;;;;;;9.47;7.50;;;;;;;-142.25;100.00;58004.16;5042959;28;20076;-61
2022/12/07 06:14:45;;;;;;;14.67;8.57;;;;;;;-142.25;100.00;58004.16;5032871;28;20056;-62
2022/12/07 06:17:12;;;;;;;16.70;11.40;;;;;;;-142.25;100.00;58004.16;5033383;28;20045;-62
2022/12/07 06:19:38;;;;;;;19.13;12.17;;;;;;;-142.25;100.00;58004.16;5036722;28;20512;-62
2022/12/07 06:22:04;;;;;;;15.07;10.00;;;;;;;-142.25;100.00;58004.16;5034978;28;20041;-62
2022/12/07 06:24:30;;;;;;;12.73;8.27;;;;;;;-142.25;100.00;58004.16;5033790;28;20507;-60
2022/12/07 06:26:56;;;;;;;14.90;9.10;;;;;;;-142.25;100.00;58004.16;5036660;28;20037;-62
2022/12/07 06:29:22;;;;;;;14.20;8.87;;;;;;;-142.25;100.00;58004.16;5034511;28;20515;-62
2022/12/07 06:31:47;;;;;;;13.20;8.40;;;;;;;-142.25;100.00;58004.16;5035341;28;20493;-61
2022/12/07 06:34:16;;;;;;;15.50;8.70;;;;;;;-142.25;100.00;58004.16;5032117;28;20116;-66
2022/12/07 06:36:42;;;;;;;12.50;8.30;;;;;;;-142.25;100.00;58004.16;5033049;28;20048;-63
2022/12/07 06:39:08;;;;;;;12.93;8.60;;;;;;;-142.25;100.00;58004.16;5032538;28;20120;-61
2022/12/07 06:41:36;;;;;;;13.97;10.20;;;;;;;-142.25;100.00;58004.16;5033691;28;20134;-61
2022/12/07 06:44:03;;;;;;;11.47;8.20;;;;;;;-142.25;100.00;58004.16;5031458;28;20456;-61
2022/12/07 06:46:29;;;;;;;9.10;6.67;;;;;;;-142.25;100.00;58004.16;5032641;28;20049;-64
2022/12/07 06:48:54;;;;;;;11.43;5.50;;;;;;;-142.25;100.00;58004.16;5033058;28;20061;-63
2022/12/07 06:51:20;;;;;;;8.20;5.83;;;;;;;-142.25;100.00;58004.16;5033599;28;20052;-62
2022/12/07 06:53:46;;;;;;;6.10;4.53;;;;;;;-142.25;100.00;58004.16;5033117;28;20077;-62
2022/12/07 06:56:11;;;;;;;7.23;5.50;;;;;;;-142.25;100.00;58004.16;5033507;28;20060;-63
2022/12/07 06:58:37;;;;;;;7.17;5.20;;;;;;;-142.25;100.00;58004.16;5032500;28;20041;-63
2022/12/07 07:01:10;;;;;;;6.67;4.63;;;;;;;-142.25;100.00;58004.16;5033056;28;20057;-62
2022/12/07 07:03:35;;;;;;;6.20;4.27;;;;;;;-142.25;100.00;58004.16;5033340;28;20041;-63
2022/12/07 07:06:01;;;;;;;7.17;4.70;;;;;;;-142.25;100.00;58004.16;5030934;28;20577;-62
2022/12/07 07:08:26;;;;;;;6.77;5.17;;;;;;;-142.25;100.00;58004.16;5035625;28;20041;-62
2022/12/07 07:10:52;;;;;;;7.33;5.37;;;;;;;-142.25;100.00;58004.16;5019119;28;20041;-62
2022/12/07 07:13:17;;;;;;;6.27;4.70;;;;;;;-142.25;100.00;58004.16;5032756;28;20503;-63
2022/12/07 07:15:43;;;;;;;6.90;4.77;;;;;;;-142.25;100.00;58004.16;5046926;28;20049;-63
2022/12/07 07:18:09;;;;;;;6.27;4.90;;;;;;;-142.25;100.00;58004.16;5032412;28;20041;-61
2022/12/07 07:20:35;;;;;;;6.73;5.37;;;;;;;-142.25;100.00;58004.16;5034370;28;20577;-63
2022/12/07 07:23:01;;;;;;;6.97;5.07;;;;;;;-142.25;100.00;58004.16;5030975;28;20043;-62
2022/12/07 07:25:26;;;;;;;8.17;5.37;;;;;;;-142.25;100.00;58004.16;5031593;28;20049;-63
2022/12/07 07:27:52;;;;;;;7.67;5.03;;;;;;;-142.25;100.00;58004.16;5032841;28;20045;-64
2022/12/07 07:30:18;;;;;;;6.80;5.17;;;;;;;-142.25;100.00;58004.16;5032028;28;20042;-62
2022/12/07 07:32:43;;;;;;;6.17;4.97;;;;;;;-142.25;100.00;58004.16;5032682;28;20048;-61
2022/12/07 07:35:09;;;;;;;6.20;4.67;;;;;;;-142.25;100.00;58004.16;5034069;28;20719;-62
2022/12/07 07:37:35;;;;;;;5.40;4.53;;;;;;;-142.25;100.00;58004.16;5033982;28;20655;-62
2022/12/07 07:40:00;;;;;;;8.17;5.77;;;;;;;-142.25;100.00;58004.16;5031476;28;20471;-62
2022/12/07 07:42:26;;;;;;;4.30;3.57;;;;;;;-142.25;100.00;58004.16;5031458;28;20227;-62
2022/12/07 07:44:52;;;;;;;6.27;4.73;;;;;;;-142.25;100.00;58004.16;5040181;28;20118;-60
2022/12/07 07:47:17;;;;;;;7.50;5.30;;;;;;;-142.25;100.00;58004.16;5032065;28;20064;-62
2022/12/07 07:49:43;;;;;;;6.67;5.67;;;;;;;-142.25;100.00;58004.16;5030951;28;20098;-62
2022/12/07 07:52:08;;;;;;;6.43;4.67;;;;;;;-142.25;100.00;58004.16;5031761;28;20053;-62
2022/12/07 07:54:34;;;;;;;6.50;5.30;;;;;;;-142.25;100.00;58004.16;5031399;28;20049;-62
2022/12/07 07:56:59;;;;;;;6.83;4.93;;;;;;;-142.25;100.00;58004.16;5032586;28;20041;-64
2022/12/07 07:59:25;;;;;;;7.87;5.83;;;;;;;-142.25;100.00;58004.16;5030164;28;20084;-63
2022/12/07 08:01:51;;;;;;;6.97;5.33;;;;;;;-142.25;100.00;58004.16;5033113;28;20464;-63
2022/12/07 08:04:16;;;;;;;7.63;5.03;;;;;;;-142.25;100.00;58004.16;5035684;28;20304;-63
2022/12/07 08:06:42;;;;;;;7.50;5.10;;;;;;;-142.25;100.00;58004.16;5026647;28;20073;-62
2022/12/07 08:09:08;;;;;;;6.50;4.10;;;;;;;-142.25;100.00;58004.16;5028973;28;20044;-62
2022/12/07 08:11:34;;;;;;;6.23;4.63;;;;;;;-142.25;100.00;58004.16;5025248;28;20289;-63
2022/12/07 08:14:00;;;;;;;6.30;4.57;;;;;;;-142.25;100.00;58004.16;5029052;28;20037;-62
2022/12/07 08:16:26;;;;;;;6.10;4.80;;;;;;;-142.25;100.00;58004.16;5029979;28;20059;-61
2022/12/07 08:18:51;;;;;;;5.40;4.20;;;;;;;-142.25;100.00;58004.16;5031527;28;20187;-62
2022/12/07 08:21:19;;;;;;;5.90;4.50;;;;;;;-142.25;100.00;58004.16;5032130;28;20036;-62
2022/12/07 08:23:44;;;;;;;5.67;4.30;;;;;;;-142.25;100.00;58004.16;5033415;28;20058;-62
2022/12/07 08:26:14;;;;;;;6.67;4.90;;;;;;;-142.25;100.00;58004.16;5030971;28;20183;-61
2022/12/07 08:28:40;;;;;;;6.60;5.67;;;;;;;-142.25;100.00;58004.16;5029134;28;20068;-62
2022/12/07 08:31:10;;;;;;;7.17;4.63;;;;;;;-142.25;100.00;58004.16;5029127;28;20049;-63
2022/12/07 08:33:35;;;;;;;11.43;6.73;;;;;;;-142.25;100.00;58004.16;5031149;28;20045;-65
2022/12/07 08:36:02;;;;;;;17.27;5.77;;;;;;;-142.25;100.00;58004.16;5031700;28;20041;-62
2022/12/07 08:38:28;;;;;;;5.90;4.13;;;;;;;-142.25;100.00;58004.16;5030579;28;20124;-62
2022/12/07 08:40:56;;;;;;;4.47;3.60;;;;;;;-142.25;100.00;58004.16;5031647;28;20504;-62
2022/12/07 08:43:22;;;;;;;5.13;4.03;;;;;;;-142.25;100.00;58004.16;5030578;28;20048;-62
2022/12/07 08:46:11;;;;;;;5.13;3.60;;;;;;;-142.25;100.00;58004.16;5028285;28;20272;-61
2022/12/07 08:48:43;;;;;;;6.83;5.07;;;;;;;-142.25;100.00;58004.16;5016370;28;20095;-63
2022/12/07 08:51:09;;;;;;;5.30;4.07;;;;;;;-142.25;100.00;58004.16;5027280;28;20083;-61
2022/12/07 08:53:36;;;;;;;5.97;4.03;;;;;;;-142.25;100.00;58004.16;5026581;28;20602;-62
2022/12/07 08:56:03;;;;;;;5.53;4.30;;;;;;;-142.25;100.00;58004.16;5028332;28;20041;-61
2022/12/07 08:58:29;;;;;;;4.10;3.07;;;;;;;-142.25;100.00;58004.16;5022401;28;20092;-61
2022/12/07 09:00:54;;;;;;;4.47;2.53;;;;;;;-142.25;100.00;58004.16;5023803;28;20048;-62
2022/12/07 09:03:20;;;;;;;8.67;2.63;;;;;;;-142.25;100.00;58004.16;5024362;28;20041;-62
2022/12/07 09:05:46;;;;;;;5.43;2.77;;;;;;;-142.25;100.00;58004.16;5026507;28;20044;-62
2022/12/07 09:08:12;;;;;;;1.90;1.80;;;;;;;-142.25;100.00;58004.16;5025905;28;20561;-64
2022/12/07 09:10:37;;;;;;;2.23;2.00;;;;;;;-142.25;100.00;58004.16;5038345;28;20054;-63
2022/12/07 09:13:03;;;;;;;1.90;1.70;;;;;;;-142.25;100.00;58004.16;5023740;28;20116;-61
2022/12/07 09:15:30;;;;;;;3.27;2.00;;;;;;;-142.25;100.00;58004.16;5024998;28;20045;-61
2022/12/07 09:17:55;;;;;;;3.23;1.70;;;;;;;-142.25;100.00;58004.16;5029461;28;20058;-61
2022/12/07 09:20:21;;;;;;;1.37;1.27;;;;;;;-142.25;100.00;58004.16;5030838;28;20071;-61
2022/12/07 09:22:47;;;;;;;2.70;1.60;;;;;;;-142.25;100.00;58004.16;5026945;28;20051;-66
2022/12/07 09:25:13;;;;;;;2.70;1.73;;;;;;;-142.25;100.00;58004.16;5030036;28;20054;-66
2022/12/07 09:27:38;;;;;;;5.70;2.50;;;;;;;-142.25;100.00;58004.16;5036697;28;20412;-61
2022/12/07 09:30:05;;;;;;;1.50;1.40;;;;;;;-142.25;100.00;58004.16;5036204;28;20568;-67
2022/12/07 09:32:31;;;;;;;1.80;1.50;;;;;;;-142.25;100.00;58004.16;5035985;28;20076;-67
2022/12/07 09:34:57;;;;;;;5.57;2.27;;;;;;;-142.25;100.00;58004.16;5032726;28;20540;-68
2022/12/07 09:37:23;;;;;;;5.17;1.80;;;;;;;-142.25;100.00;58004.16;5035010;28;20618;-65
2022/12/07 09:39:48;;;;;;;2.63;2.30;;;;;;;-142.25;100.00;58004.16;5028842;28;20045;-67
2022/12/07 09:42:23;;;;;;;3.33;1.83;;;;;;;-142.25;100.00;58004.16;5029006;28;20223;-68
2022/12/07 09:44:48;;;;;;;4.40;1.80;;;;;;;-142.25;100.00;58004.16;5029178;28;20108;-65
2022/12/07 09:47:14;;;;;;;4.50;2.20;;;;;;;-142.25;100.00;58004.16;5027758;28;20075;-65
2022/12/07 09:49:40;;;;;;;3.20;1.77;;;;;;;-142.25;100.00;58004.16;5039033;28;20600;-65
2022/12/07 09:52:08;;;;;;;2.53;1.70;;;;;;;-142.25;100.00;58004.16;5027949;28;20037;-67
2022/12/07 09:54:41;;;;;;;3.47;2.13;;;;;;;-142.25;100.00;58004.16;5026845;28;20034;-66
2022/12/07 09:57:08;;;;;;;6.33;1.70;;;;;;;-142.25;100.00;58004.16;5030178;28;20044;-63
2022/12/07 09:59:34;;;;;;;2.67;1.67;;;;;;;-142.25;100.00;58004.16;5034872;28;20037;-67
2022/12/07 10:02:23;;;;;;;2.47;2.23;;;;;;;-142.25;100.00;58004.16;5032305;28;20481;-66
2022/12/07 10:04:49;;;;;;;5.03;2.40;;;;;;;-142.25;100.00;58004.16;5037730;28;20107;-70
2022/12/07 10:07:14;;;;;;;3.50;2.17;;;;;;;-142.25;100.00;58004.16;5034954;28;20073;-66
2022/12/07 10:09:40;;;;;;;4.77;2.40;;;;;;;-142.25;100.00;58004.16;5034961;28;20064;-66
2022/12/07 10:12:09;;;;;;;3.60;3.00;;;;;;;-142.25;100.00;58004.16;5042989;28;20057;-64
2022/12/07 10:14:52;;;;;;;2.37;2.17;;;;;;;-142.25;100.00;58004.16;5027124;28;20536;-66
2022/12/07 10:17:34;;;;;;;1.87;1.77;;;;;;;-142.25;100.00;58004.16;5029935;28;20152;-67
2022/12/07 10:20:25;;;;;;;5.53;2.20;;;;;;;-142.25;100.00;58004.16;5031724;28;20455;-62
2022/12/07 10:23:02;;;;;;;3.07;2.43;;;;;;;-142.25;100.00;58004.16;5033731;28;20132;-62
2022/12/07 10:25:32;;;;;;;4.00;2.67;;;;;;;-142.25;100.00;58004.16;5032560;28;20107;-62
2022/12/07 10:28:15;;;;;;;2.80;1.87;;;;;;;-142.25;100.00;58004.16;5029522;28;20069;-62
2022/12/07 10:30:59;;;;;;;1.60;1.50;;;;;;;-142.25;100.00;58004.16;5026771;28;20043;-67
2022/12/07 10:33:48;;;;;;;1.93;1.80;;;;;;;-142.25;100.00;58004.16;5040900;28;20054;-64
2022/12/07 10:36:37;;;;;;;4.13;2.63;;;;;;;-142.25;100.00;58004.16;5032658;28;20064;-63
2022/12/07 10:39:14;;;;;;;2.93;1.83;;;;;;;-142.25;100.00;58004.16;5041053;28;20051;-64
2022/12/07 10:42:00;;;;;;;3.50;2.43;;;;;;;-142.25;100.00;58004.16;5039223;28;20045;-62
2022/12/07 10:44:31;;;;;;;2.73;2.03;;;;;;;-142.25;100.00;58004.16;5029452;28;20419;-64
2022/12/07 10:47:18;;;;;;;2.07;1.50;;;;;;;-142.25;100.00;58004.16;5030070;28;20050;-62
2022/12/07 10:49:59;;;;;;;2.80;1.70;;;;;;;-142.25;100.00;58004.16;5027100;28;20185;-63
2022/12/07 10:53:07;;;;;;;3.60;1.93;;;;;;;-142.25;100.00;58004.16;5027735;28;20049;-62
2022/12/07 10:56:01;;;;;;;2.47;2.00;;;;;;;-142.25;100.00;58004.16;5032233;28;20182;-63
2022/12/07 10:58:47;;;;;;;2.10;1.90;;;;;;;-142.25;100.00;58004.16;5032680;28;20043;-63
2022/12/07 11:01:30;;;;;;;2.33;1.87;;;;;;;-142.25;100.00;58004.16;5033865;28;20037;-61
2022/12/07 11:04:17;;;;;;;1.90;1.80;;;;;;;-142.25;100.00;58004.16;5028971;28;20033;-61
2022/12/07 11:07:07;;;;;;;1.70;1.60;;;;;;;-142.25;100.00;58004.16;5028636;28;20484;-61
2022/12/07 11:10:04;;;;;;;1.50;1.40;;;;;;;-142.25;100.00;58004.16;5025296;28;20041;-61
2022/12/07 11:12:59;;;;;;;2.08;1.88;;;;;;;-142.25;100.00;58004.16;5040035;28;20041;-61
2022/12/07 11:15:33;;;;;;;2.30;2.03;;;;;;;-142.25;100.00;58004.16;5033392;28;20199;-60
2022/12/07 11:18:26;;;;;;;1.27;1.17;;;;;;;-142.25;100.00;58004.16;5032201;28;20492;-63
2022/12/07 11:21:36;;;;;;;17.53;2.90;;;;;;;-142.25;100.00;58004.16;5030645;28;20043;-62
2022/12/07 11:24:31;;;;;;;1.43;1.33;;;;;;;-142.25;100.00;58004.16;5023411;28;20388;-61
2022/12/07 11:27:02;;;;;;;2.90;1.70;;;;;;;-142.25;100.00;58004.16;5027297;28;20460;-62